sensor_id;sensor_type;location;lat;lon;timestamp;P1;durP1;ratioP1;P2;durP2;ratioP2
27666;SDS011;15074;50.940;5.282;2024-03-08T00:01:52;29.90;;;17.83;;
27666;SDS011;15074;50.940;5.282;2024-03-08T00:04:24;23.95;;;17.00;;
27666;SDS011;15074;50.940;5.282;2024-03-08T00:06:52;25.05;;;17.60;;
27666;SDS011;15074;50.940;5.282;2024-03-08T00:09:19;29.30;;;17.52;;
27666;SDS011;15074;50.940;5.282;2024-03-08T00:11:46;30.52;;;17.95;;
27666;SDS011;15074;50.940;5.282;2024-03-08T00:14:16;30.17;;;18.52;;
27666;SDS011;15074;50.940;5.282;2024-03-08T00:16:43;34.25;;;19.70;;
27666;SDS011;15074;50.940;5.282;2024-03-08T00:19:24;27.33;;;18.02;;
27666;SDS011;15074;50.940;5.282;2024-03-08T00:22:08;28.15;;;18.63;;
27666;SDS011;15074;50.940;5.282;2024-03-08T00:24:42;35.03;;;19.08;;
27666;SDS011;15074;50.940;5.282;2024-03-08T00:27:24;29.98;;;19.80;;
27666;SDS011;15074;50.940;5.282;2024-03-08T00:30:22;29.35;;;18.50;;
27666;SDS011;15074;50.940;5.282;2024-03-08T00:32:48;33.67;;;18.83;;
27666;SDS011;15074;50.940;5.282;2024-03-08T00:35:27;33.38;;;18.50;;
27666;SDS011;15074;50.940;5.282;2024-03-08T00:37:55;29.38;;;19.50;;
27666;SDS011;15074;50.940;5.282;2024-03-08T00:40:22;31.92;;;18.75;;
27666;SDS011;15074;50.940;5.282;2024-03-08T00:42:48;32.80;;;19.95;;
27666;SDS011;15074;50.940;5.282;2024-03-08T00:45:23;27.77;;;19.02;;
27666;SDS011;15074;50.940;5.282;2024-03-08T00:47:49;35.37;;;19.00;;
27666;SDS011;15074;50.940;5.282;2024-03-08T00:50:15;34.72;;;20.00;;
27666;SDS011;15074;50.940;5.282;2024-03-08T00:52:42;34.00;;;19.80;;
27666;SDS011;15074;50.940;5.282;2024-03-08T00:55:09;34.92;;;21.38;;
27666;SDS011;15074;50.940;5.282;2024-03-08T00:57:36;32.97;;;19.58;;
27666;SDS011;15074;50.940;5.282;2024-03-08T01:00:05;31.08;;;20.35;;
27666;SDS011;15074;50.940;5.282;2024-03-08T01:02:39;31.35;;;19.73;;
27666;SDS011;15074;50.940;5.282;2024-03-08T01:05:07;30.52;;;20.63;;
27666;SDS011;15074;50.940;5.282;2024-03-08T01:07:34;37.43;;;21.83;;
27666;SDS011;15074;50.940;5.282;2024-03-08T01:10:01;40.30;;;21.10;;
27666;SDS011;15074;50.940;5.282;2024-03-08T01:12:39;41.20;;;21.75;;
27666;SDS011;15074;50.940;5.282;2024-03-08T01:15:17;41.10;;;21.42;;
27666;SDS011;15074;50.940;5.282;2024-03-08T01:18:06;38.13;;;21.42;;
27666;SDS011;15074;50.940;5.282;2024-03-08T01:20:32;36.90;;;21.80;;
27666;SDS011;15074;50.940;5.282;2024-03-08T01:23:07;33.75;;;21.92;;
27666;SDS011;15074;50.940;5.282;2024-03-08T01:25:36;48.65;;;24.02;;
27666;SDS011;15074;50.940;5.282;2024-03-08T01:28:04;38.20;;;21.77;;
27666;SDS011;15074;50.940;5.282;2024-03-08T01:30:31;42.47;;;23.02;;
27666;SDS011;15074;50.940;5.282;2024-03-08T01:32:59;38.55;;;22.58;;
27666;SDS011;15074;50.940;5.282;2024-03-08T01:35:25;37.78;;;21.02;;
27666;SDS011;15074;50.940;5.282;2024-03-08T01:37:54;44.58;;;23.05;;
27666;SDS011;15074;50.940;5.282;2024-03-08T01:40:20;41.75;;;22.70;;
27666;SDS011;15074;50.940;5.282;2024-03-08T01:45:13;38.95;;;21.83;;
27666;SDS011;15074;50.940;5.282;2024-03-08T01:47:47;39.15;;;22.35;;
27666;SDS011;15074;50.940;5.282;2024-03-08T01:50:13;41.78;;;21.75;;
27666;SDS011;15074;50.940;5.282;2024-03-08T01:52:42;42.00;;;22.33;;
27666;SDS011;15074;50.940;5.282;2024-03-08T01:55:10;40.00;;;21.75;;
27666;SDS011;15074;50.940;5.282;2024-03-08T01:57:39;36.03;;;20.65;;
27666;SDS011;15074;50.940;5.282;2024-03-08T02:00:12;38.72;;;22.40;;
27666;SDS011;15074;50.940;5.282;2024-03-08T02:02:47;39.85;;;22.55;;
27666;SDS011;15074;50.940;5.282;2024-03-08T02:05:33;43.92;;;23.48;;
27666;SDS011;15074;50.940;5.282;2024-03-08T02:08:11;42.47;;;22.60;;
27666;SDS011;15074;50.940;5.282;2024-03-08T02:10:45;39.08;;;22.80;;
27666;SDS011;15074;50.940;5.282;2024-03-08T02:13:12;37.92;;;21.15;;
27666;SDS011;15074;50.940;5.282;2024-03-08T02:15:54;53.03;;;24.30;;
27666;SDS011;15074;50.940;5.282;2024-03-08T02:18:43;38.80;;;22.48;;
27666;SDS011;15074;50.940;5.282;2024-03-08T02:21:10;47.10;;;23.90;;
27666;SDS011;15074;50.940;5.282;2024-03-08T02:23:40;43.28;;;23.48;;
27666;SDS011;15074;50.940;5.282;2024-03-08T02:26:08;40.08;;;22.95;;
27666;SDS011;15074;50.940;5.282;2024-03-08T02:28:34;41.40;;;22.55;;
27666;SDS011;15074;50.940;5.282;2024-03-08T02:31:04;44.22;;;22.88;;
27666;SDS011;15074;50.940;5.282;2024-03-08T02:33:33;40.70;;;23.02;;
27666;SDS011;15074;50.940;5.282;2024-03-08T02:35:59;45.33;;;24.10;;
27666;SDS011;15074;50.940;5.282;2024-03-08T02:38:44;40.67;;;22.17;;
27666;SDS011;15074;50.940;5.282;2024-03-08T02:41:12;42.92;;;22.48;;
27666;SDS011;15074;50.940;5.282;2024-03-08T02:43:39;47.50;;;23.90;;
27666;SDS011;15074;50.940;5.282;2024-03-08T02:46:12;39.40;;;22.63;;
27666;SDS011;15074;50.940;5.282;2024-03-08T02:48:39;41.15;;;22.55;;
27666;SDS011;15074;50.940;5.282;2024-03-08T02:51:09;38.28;;;23.13;;
27666;SDS011;15074;50.940;5.282;2024-03-08T02:53:37;46.47;;;22.80;;
27666;SDS011;15074;50.940;5.282;2024-03-08T02:56:10;41.97;;;22.85;;
27666;SDS011;15074;50.940;5.282;2024-03-08T02:58:42;47.53;;;22.55;;
27666;SDS011;15074;50.940;5.282;2024-03-08T03:01:18;51.63;;;22.38;;
27666;SDS011;15074;50.940;5.282;2024-03-08T03:03:53;48.33;;;23.15;;
27666;SDS011;15074;50.940;5.282;2024-03-08T03:06:21;50.80;;;23.30;;
27666;SDS011;15074;50.940;5.282;2024-03-08T03:09:13;43.08;;;22.63;;
27666;SDS011;15074;50.940;5.282;2024-03-08T03:11:43;38.70;;;21.30;;
27666;SDS011;15074;50.940;5.282;2024-03-08T03:14:17;46.50;;;22.40;;
27666;SDS011;15074;50.940;5.282;2024-03-08T03:16:44;46.83;;;23.05;;
27666;SDS011;15074;50.940;5.282;2024-03-08T03:19:12;42.45;;;21.13;;
27666;SDS011;15074;50.940;5.282;2024-03-08T03:21:42;43.60;;;22.20;;
27666;SDS011;15074;50.940;5.282;2024-03-08T03:24:16;43.85;;;23.80;;
27666;SDS011;15074;50.940;5.282;2024-03-08T03:26:51;38.50;;;22.80;;
27666;SDS011;15074;50.940;5.282;2024-03-08T03:29:45;43.10;;;22.30;;
27666;SDS011;15074;50.940;5.282;2024-03-08T03:32:12;46.80;;;21.35;;
27666;SDS011;15074;50.940;5.282;2024-03-08T03:35:13;43.35;;;22.02;;
27666;SDS011;15074;50.940;5.282;2024-03-08T03:37:43;45.85;;;23.88;;
27666;SDS011;15074;50.940;5.282;2024-03-08T03:40:16;45.55;;;21.88;;
27666;SDS011;15074;50.940;5.282;2024-03-08T03:42:52;41.53;;;22.52;;
27666;SDS011;15074;50.940;5.282;2024-03-08T03:45:19;47.13;;;22.47;;
27666;SDS011;15074;50.940;5.282;2024-03-08T03:47:45;44.88;;;23.45;;
27666;SDS011;15074;50.940;5.282;2024-03-08T03:50:17;45.40;;;23.42;;
27666;SDS011;15074;50.940;5.282;2024-03-08T03:53:02;47.22;;;22.67;;
27666;SDS011;15074;50.940;5.282;2024-03-08T03:55:50;47.55;;;23.10;;
27666;SDS011;15074;50.940;5.282;2024-03-08T03:58:17;45.00;;;22.73;;
27666;SDS011;15074;50.940;5.282;2024-03-08T04:00:49;42.47;;;22.10;;
27666;SDS011;15074;50.940;5.282;2024-03-08T04:03:50;46.78;;;23.75;;
27666;SDS011;15074;50.940;5.282;2024-03-08T04:06:16;51.78;;;24.08;;
27666;SDS011;15074;50.940;5.282;2024-03-08T04:09:05;45.13;;;21.85;;
27666;SDS011;15074;50.940;5.282;2024-03-08T04:11:52;42.60;;;22.33;;
27666;SDS011;15074;50.940;5.282;2024-03-08T04:14:27;42.63;;;23.00;;
27666;SDS011;15074;50.940;5.282;2024-03-08T04:16:53;49.88;;;23.23;;
27666;SDS011;15074;50.940;5.282;2024-03-08T04:19:20;45.15;;;22.95;;
27666;SDS011;15074;50.940;5.282;2024-03-08T04:21:46;46.63;;;23.05;;
27666;SDS011;15074;50.940;5.282;2024-03-08T04:24:19;46.33;;;23.20;;
27666;SDS011;15074;50.940;5.282;2024-03-08T04:26:53;43.28;;;22.27;;
27666;SDS011;15074;50.940;5.282;2024-03-08T04:29:23;46.20;;;21.77;;
27666;SDS011;15074;50.940;5.282;2024-03-08T04:31:51;50.05;;;23.88;;
27666;SDS011;15074;50.940;5.282;2024-03-08T04:34:23;49.38;;;21.80;;
27666;SDS011;15074;50.940;5.282;2024-03-08T04:36:58;42.85;;;21.58;;
27666;SDS011;15074;50.940;5.282;2024-03-08T04:39:25;49.97;;;22.83;;
27666;SDS011;15074;50.940;5.282;2024-03-08T04:42:03;42.20;;;20.60;;
27666;SDS011;15074;50.940;5.282;2024-03-08T04:44:37;49.63;;;22.63;;
27666;SDS011;15074;50.940;5.282;2024-03-08T04:47:06;48.05;;;22.52;;
27666;SDS011;15074;50.940;5.282;2024-03-08T04:49:34;53.65;;;22.70;;
27666;SDS011;15074;50.940;5.282;2024-03-08T04:52:03;48.88;;;22.63;;
27666;SDS011;15074;50.940;5.282;2024-03-08T04:54:29;44.78;;;21.92;;
27666;SDS011;15074;50.940;5.282;2024-03-08T04:56:57;39.78;;;21.50;;
27666;SDS011;15074;50.940;5.282;2024-03-08T04:59:26;43.08;;;22.50;;
27666;SDS011;15074;50.940;5.282;2024-03-08T05:01:53;51.05;;;22.65;;
27666;SDS011;15074;50.940;5.282;2024-03-08T05:07:27;43.08;;;21.35;;
27666;SDS011;15074;50.940;5.282;2024-03-08T05:09:55;47.50;;;22.13;;
27666;SDS011;15074;50.940;5.282;2024-03-08T05:12:21;46.38;;;21.55;;
27666;SDS011;15074;50.940;5.282;2024-03-08T05:14:53;46.03;;;21.38;;
27666;SDS011;15074;50.940;5.282;2024-03-08T05:17:37;46.65;;;22.63;;
27666;SDS011;15074;50.940;5.282;2024-03-08T05:20:05;48.17;;;22.45;;
27666;SDS011;15074;50.940;5.282;2024-03-08T05:22:43;49.70;;;23.33;;
27666;SDS011;15074;50.940;5.282;2024-03-08T05:25:10;43.80;;;21.35;;
27666;SDS011;15074;50.940;5.282;2024-03-08T05:27:39;39.53;;;22.38;;
27666;SDS011;15074;50.940;5.282;2024-03-08T05:30:06;45.20;;;21.80;;
27666;SDS011;15074;50.940;5.282;2024-03-08T05:32:40;45.20;;;21.92;;
27666;SDS011;15074;50.940;5.282;2024-03-08T05:35:12;57.47;;;22.65;;
27666;SDS011;15074;50.940;5.282;2024-03-08T05:37:47;44.85;;;21.98;;
27666;SDS011;15074;50.940;5.282;2024-03-08T05:40:14;49.45;;;21.63;;
27666;SDS011;15074;50.940;5.282;2024-03-08T05:42:41;42.42;;;21.92;;
27666;SDS011;15074;50.940;5.282;2024-03-08T05:45:07;45.15;;;20.10;;
27666;SDS011;15074;50.940;5.282;2024-03-08T05:47:35;44.03;;;21.52;;
27666;SDS011;15074;50.940;5.282;2024-03-08T05:50:01;42.75;;;21.30;;
27666;SDS011;15074;50.940;5.282;2024-03-08T05:52:27;46.35;;;21.85;;
27666;SDS011;15074;50.940;5.282;2024-03-08T05:54:54;47.28;;;21.70;;
27666;SDS011;15074;50.940;5.282;2024-03-08T05:57:20;47.40;;;22.70;;
27666;SDS011;15074;50.940;5.282;2024-03-08T05:59:49;41.90;;;20.83;;
27666;SDS011;15074;50.940;5.282;2024-03-08T06:04:48;52.00;;;19.92;;
27666;SDS011;15074;50.940;5.282;2024-03-08T06:07:15;39.40;;;18.30;;
27666;SDS011;15074;50.940;5.282;2024-03-08T06:09:45;45.08;;;20.38;;
27666;SDS011;15074;50.940;5.282;2024-03-08T06:12:28;51.00;;;20.45;;
27666;SDS011;15074;50.940;5.282;2024-03-08T06:15:05;45.10;;;20.90;;
27666;SDS011;15074;50.940;5.282;2024-03-08T06:17:32;41.65;;;21.30;;
27666;SDS011;15074;50.940;5.282;2024-03-08T06:19:59;47.80;;;22.38;;
27666;SDS011;15074;50.940;5.282;2024-03-08T06:22:26;45.80;;;22.50;;
27666;SDS011;15074;50.940;5.282;2024-03-08T06:24:51;42.35;;;20.60;;
27666;SDS011;15074;50.940;5.282;2024-03-08T06:27:19;46.23;;;20.07;;
27666;SDS011;15074;50.940;5.282;2024-03-08T06:29:45;71.85;;;21.27;;
27666;SDS011;15074;50.940;5.282;2024-03-08T06:32:11;39.75;;;17.70;;
27666;SDS011;15074;50.940;5.282;2024-03-08T06:34:36;50.65;;;20.80;;
27666;SDS011;15074;50.940;5.282;2024-03-08T06:37:02;49.80;;;22.95;;
27666;SDS011;15074;50.940;5.282;2024-03-08T06:39:28;38.97;;;18.95;;
27666;SDS011;15074;50.940;5.282;2024-03-08T06:41:57;47.65;;;21.75;;
27666;SDS011;15074;50.940;5.282;2024-03-08T06:44:22;45.03;;;20.02;;
27666;SDS011;15074;50.940;5.282;2024-03-08T06:46:48;37.30;;;20.88;;
27666;SDS011;15074;50.940;5.282;2024-03-08T06:49:14;39.95;;;20.38;;
27666;SDS011;15074;50.940;5.282;2024-03-08T06:54:15;36.53;;;19.40;;
27666;SDS011;15074;50.940;5.282;2024-03-08T06:59:16;31.95;;;17.80;;
27666;SDS011;15074;50.940;5.282;2024-03-08T07:04:18;39.67;;;19.85;;
27666;SDS011;15074;50.940;5.282;2024-03-08T07:06:45;42.25;;;20.65;;
27666;SDS011;15074;50.940;5.282;2024-03-08T07:09:10;45.45;;;18.85;;
27666;SDS011;15074;50.940;5.282;2024-03-08T07:11:36;41.78;;;18.80;;
27666;SDS011;15074;50.940;5.282;2024-03-08T07:14:02;30.70;;;19.48;;
27666;SDS011;15074;50.940;5.282;2024-03-08T07:18:56;56.75;;;20.00;;
27666;SDS011;15074;50.940;5.282;2024-03-08T07:21:23;27.98;;;18.08;;
27666;SDS011;15074;50.940;5.282;2024-03-08T07:23:49;39.22;;;17.95;;
27666;SDS011;15074;50.940;5.282;2024-03-08T07:26:38;35.17;;;19.70;;
27666;SDS011;15074;50.940;5.282;2024-03-08T07:29:04;33.58;;;19.13;;
27666;SDS011;15074;50.940;5.282;2024-03-08T07:31:30;36.60;;;17.55;;
27666;SDS011;15074;50.940;5.282;2024-03-08T07:34:07;32.92;;;18.27;;
27666;SDS011;15074;50.940;5.282;2024-03-08T07:36:36;28.33;;;17.40;;
27666;SDS011;15074;50.940;5.282;2024-03-08T07:39:01;28.90;;;18.58;;
27666;SDS011;15074;50.940;5.282;2024-03-08T07:41:27;37.58;;;18.10;;
27666;SDS011;15074;50.940;5.282;2024-03-08T07:46:21;33.78;;;19.42;;
27666;SDS011;15074;50.940;5.282;2024-03-08T07:48:48;34.67;;;19.05;;
27666;SDS011;15074;50.940;5.282;2024-03-08T07:53:49;26.27;;;15.13;;
27666;SDS011;15074;50.940;5.282;2024-03-08T08:06:36;35.65;;;17.65;;
27666;SDS011;15074;50.940;5.282;2024-03-08T08:09:03;27.33;;;17.63;;
27666;SDS011;15074;50.940;5.282;2024-03-08T08:11:28;26.25;;;16.77;;
27666;SDS011;15074;50.940;5.282;2024-03-08T08:13:54;29.73;;;15.38;;
27666;SDS011;15074;50.940;5.282;2024-03-08T08:16:22;27.92;;;13.65;;
27666;SDS011;15074;50.940;5.282;2024-03-08T08:18:48;49.78;;;16.05;;
27666;SDS011;15074;50.940;5.282;2024-03-08T08:21:15;28.52;;;17.50;;
27666;SDS011;15074;50.940;5.282;2024-03-08T08:23:40;24.67;;;16.00;;
27666;SDS011;15074;50.940;5.282;2024-03-08T08:26:06;22.15;;;14.18;;
27666;SDS011;15074;50.940;5.282;2024-03-08T08:28:32;21.85;;;13.90;;
27666;SDS011;15074;50.940;5.282;2024-03-08T08:30:58;35.38;;;16.60;;
27666;SDS011;15074;50.940;5.282;2024-03-08T08:33:24;29.50;;;17.25;;
27666;SDS011;15074;50.940;5.282;2024-03-08T08:35:50;22.98;;;12.00;;
27666;SDS011;15074;50.940;5.282;2024-03-08T08:38:19;21.98;;;15.43;;
27666;SDS011;15074;50.940;5.282;2024-03-08T08:40:45;19.23;;;15.25;;
27666;SDS011;15074;50.940;5.282;2024-03-08T08:43:12;64.35;;;17.67;;
27666;SDS011;15074;50.940;5.282;2024-03-08T08:45:39;17.85;;;13.98;;
27666;SDS011;15074;50.940;5.282;2024-03-08T08:48:05;31.48;;;15.60;;
27666;SDS011;15074;50.940;5.282;2024-03-08T08:50:31;19.83;;;14.85;;
27666;SDS011;15074;50.940;5.282;2024-03-08T08:52:57;31.35;;;16.85;;
27666;SDS011;15074;50.940;5.282;2024-03-08T08:55:23;19.20;;;13.73;;
27666;SDS011;15074;50.940;5.282;2024-03-08T08:57:52;20.30;;;14.70;;
27666;SDS011;15074;50.940;5.282;2024-03-08T09:00:19;24.33;;;15.52;;
27666;SDS011;15074;50.940;5.282;2024-03-08T09:02:45;21.88;;;9.88;;
27666;SDS011;15074;50.940;5.282;2024-03-08T09:05:12;28.25;;;16.25;;
27666;SDS011;15074;50.940;5.282;2024-03-08T09:07:39;22.05;;;14.82;;
27666;SDS011;15074;50.940;5.282;2024-03-08T09:10:05;20.83;;;12.93;;
27666;SDS011;15074;50.940;5.282;2024-03-08T09:12:32;63.95;;;17.80;;
27666;SDS011;15074;50.940;5.282;2024-03-08T09:14:58;23.92;;;12.98;;
27666;SDS011;15074;50.940;5.282;2024-03-08T09:17:24;19.85;;;15.02;;
27666;SDS011;15074;50.940;5.282;2024-03-08T09:19:50;23.02;;;15.57;;
27666;SDS011;15074;50.940;5.282;2024-03-08T09:22:16;33.60;;;14.68;;
27666;SDS011;15074;50.940;5.282;2024-03-08T09:24:43;19.52;;;15.85;;
27666;SDS011;15074;50.940;5.282;2024-03-08T09:27:08;25.27;;;15.25;;
27666;SDS011;15074;50.940;5.282;2024-03-08T09:29:35;18.05;;;13.30;;
27666;SDS011;15074;50.940;5.282;2024-03-08T09:32:01;33.63;;;15.55;;
27666;SDS011;15074;50.940;5.282;2024-03-08T09:34:27;20.52;;;8.90;;
27666;SDS011;15074;50.940;5.282;2024-03-08T09:36:52;20.08;;;13.55;;
27666;SDS011;15074;50.940;5.282;2024-03-08T09:39:18;27.10;;;16.80;;
27666;SDS011;15074;50.940;5.282;2024-03-08T09:41:51;15.95;;;14.10;;
27666;SDS011;15074;50.940;5.282;2024-03-08T09:44:17;16.45;;;13.27;;
27666;SDS011;15074;50.940;5.282;2024-03-08T09:46:44;15.75;;;11.68;;
27666;SDS011;15074;50.940;5.282;2024-03-08T09:51:38;14.45;;;12.52;;
27666;SDS011;15074;50.940;5.282;2024-03-08T09:54:05;17.30;;;13.35;;
27666;SDS011;15074;50.940;5.282;2024-03-08T09:56:35;14.27;;;12.75;;
27666;SDS011;15074;50.940;5.282;2024-03-08T09:59:01;17.10;;;13.95;;
27666;SDS011;15074;50.940;5.282;2024-03-08T10:01:36;22.08;;;13.85;;
27666;SDS011;15074;50.940;5.282;2024-03-08T10:04:04;16.30;;;12.43;;
27666;SDS011;15074;50.940;5.282;2024-03-08T10:06:30;19.85;;;13.23;;
27666;SDS011;15074;50.940;5.282;2024-03-08T10:08:56;17.40;;;15.00;;
27666;SDS011;15074;50.940;5.282;2024-03-08T10:11:22;40.40;;;15.50;;
27666;SDS011;15074;50.940;5.282;2024-03-08T10:13:49;26.73;;;11.43;;
27666;SDS011;15074;50.940;5.282;2024-03-08T10:16:15;20.25;;;12.98;;
27666;SDS011;15074;50.940;5.282;2024-03-08T10:18:47;22.88;;;13.65;;
27666;SDS011;15074;50.940;5.282;2024-03-08T10:21:12;17.25;;;14.40;;
27666;SDS011;15074;50.940;5.282;2024-03-08T10:23:40;28.02;;;13.98;;
27666;SDS011;15074;50.940;5.282;2024-03-08T10:28:47;17.40;;;13.30;;
27666;SDS011;15074;50.940;5.282;2024-03-08T10:31:17;15.18;;;13.73;;
27666;SDS011;15074;50.940;5.282;2024-03-08T10:33:44;16.33;;;13.65;;
27666;SDS011;15074;50.940;5.282;2024-03-08T10:36:11;12.50;;;10.52;;
27666;SDS011;15074;50.940;5.282;2024-03-08T10:38:38;22.08;;;15.02;;
27666;SDS011;15074;50.940;5.282;2024-03-08T10:41:05;17.45;;;13.00;;
27666;SDS011;15074;50.940;5.282;2024-03-08T10:46:33;16.92;;;11.55;;
27666;SDS011;15074;50.940;5.282;2024-03-08T10:49:01;16.13;;;11.90;;
27666;SDS011;15074;50.940;5.282;2024-03-08T10:51:31;39.78;;;15.55;;
27666;SDS011;15074;50.940;5.282;2024-03-08T10:53:57;20.77;;;14.18;;
27666;SDS011;15074;50.940;5.282;2024-03-08T10:56:28;17.42;;;14.85;;
27666;SDS011;15074;50.940;5.282;2024-03-08T10:58:54;35.10;;;15.02;;
27666;SDS011;15074;50.940;5.282;2024-03-08T11:01:20;17.50;;;14.18;;
27666;SDS011;15074;50.940;5.282;2024-03-08T11:03:47;16.02;;;14.35;;
27666;SDS011;15074;50.940;5.282;2024-03-08T11:06:22;15.35;;;13.85;;
27666;SDS011;15074;50.940;5.282;2024-03-08T11:15:09;15.15;;;10.73;;
27666;SDS011;15074;50.940;5.282;2024-03-08T11:17:44;24.13;;;13.77;;
27666;SDS011;15074;50.940;5.282;2024-03-08T11:20:13;47.95;;;15.13;;
27666;SDS011;15074;50.940;5.282;2024-03-08T11:22:49;19.90;;;14.13;;
27666;SDS011;15074;50.940;5.282;2024-03-08T11:25:30;15.02;;;13.48;;
27666;SDS011;15074;50.940;5.282;2024-03-08T11:28:15;15.40;;;13.77;;
27666;SDS011;15074;50.940;5.282;2024-03-08T11:30:43;11.98;;;10.23;;
27666;SDS011;15074;50.940;5.282;2024-03-08T11:33:26;17.33;;;13.73;;
27666;SDS011;15074;50.940;5.282;2024-03-08T11:36:19;15.48;;;13.10;;
27666;SDS011;15074;50.940;5.282;2024-03-08T11:38:47;15.88;;;13.05;;
27666;SDS011;15074;50.940;5.282;2024-03-08T11:41:24;20.20;;;14.35;;
27666;SDS011;15074;50.940;5.282;2024-03-08T11:44:01;13.98;;;11.30;;
27666;SDS011;15074;50.940;5.282;2024-03-08T11:46:30;20.60;;;12.32;;
27666;SDS011;15074;50.940;5.282;2024-03-08T11:48:56;26.95;;;14.52;;
27666;SDS011;15074;50.940;5.282;2024-03-08T11:51:22;24.05;;;14.18;;
27666;SDS011;15074;50.940;5.282;2024-03-08T11:53:49;16.10;;;11.77;;
27666;SDS011;15074;50.940;5.282;2024-03-08T11:56:15;13.60;;;12.20;;
27666;SDS011;15074;50.940;5.282;2024-03-08T11:58:41;17.35;;;14.43;;
27666;SDS011;15074;50.940;5.282;2024-03-08T12:01:17;19.50;;;13.48;;
27666;SDS011;15074;50.940;5.282;2024-03-08T12:03:43;15.80;;;14.20;;
27666;SDS011;15074;50.940;5.282;2024-03-08T12:06:09;14.98;;;13.43;;
27666;SDS011;15074;50.940;5.282;2024-03-08T12:08:35;20.38;;;13.88;;
27666;SDS011;15074;50.940;5.282;2024-03-08T12:11:03;34.22;;;14.43;;
27666;SDS011;15074;50.940;5.282;2024-03-08T12:13:35;21.50;;;14.15;;
27666;SDS011;15074;50.940;5.282;2024-03-08T12:16:04;30.58;;;13.13;;
27666;SDS011;15074;50.940;5.282;2024-03-08T12:18:37;14.82;;;13.43;;
27666;SDS011;15074;50.940;5.282;2024-03-08T12:21:04;14.95;;;13.63;;
27666;SDS011;15074;50.940;5.282;2024-03-08T12:23:32;15.40;;;13.88;;
27666;SDS011;15074;50.940;5.282;2024-03-08T12:26:09;15.18;;;13.55;;
27666;SDS011;15074;50.940;5.282;2024-03-08T12:28:44;30.38;;;14.35;;
27666;SDS011;15074;50.940;5.282;2024-03-08T12:31:16;15.13;;;13.60;;
27666;SDS011;15074;50.940;5.282;2024-03-08T12:33:52;14.02;;;12.55;;
27666;SDS011;15074;50.940;5.282;2024-03-08T12:36:20;18.13;;;13.57;;
27666;SDS011;15074;50.940;5.282;2024-03-08T12:38:46;13.70;;;12.40;;
27666;SDS011;15074;50.940;5.282;2024-03-08T12:41:18;17.95;;;13.35;;
27666;SDS011;15074;50.940;5.282;2024-03-08T12:43:45;22.67;;;12.95;;
27666;SDS011;15074;50.940;5.282;2024-03-08T12:46:22;13.68;;;12.27;;
27666;SDS011;15074;50.940;5.282;2024-03-08T12:51:18;14.40;;;12.90;;
27666;SDS011;15074;50.940;5.282;2024-03-08T12:53:45;13.90;;;12.30;;
27666;SDS011;15074;50.940;5.282;2024-03-08T12:56:12;10.68;;;9.57;;
27666;SDS011;15074;50.940;5.282;2024-03-08T12:58:39;15.20;;;13.40;;
27666;SDS011;15074;50.940;5.282;2024-03-08T13:01:05;20.70;;;12.68;;
27666;SDS011;15074;50.940;5.282;2024-03-08T13:03:34;13.25;;;10.55;;
27666;SDS011;15074;50.940;5.282;2024-03-08T13:06:03;18.42;;;12.45;;
27666;SDS011;15074;50.940;5.282;2024-03-08T13:08:34;15.63;;;12.52;;
27666;SDS011;15074;50.940;5.282;2024-03-08T13:11:08;16.73;;;12.52;;
27666;SDS011;15074;50.940;5.282;2024-03-08T13:13:37;13.95;;;12.57;;
27666;SDS011;15074;50.940;5.282;2024-03-08T13:16:05;15.55;;;12.60;;
27666;SDS011;15074;50.940;5.282;2024-03-08T13:18:33;16.13;;;12.23;;
27666;SDS011;15074;50.940;5.282;2024-03-08T13:20:59;13.30;;;12.10;;
27666;SDS011;15074;50.940;5.282;2024-03-08T13:23:30;13.80;;;11.35;;
27666;SDS011;15074;50.940;5.282;2024-03-08T13:25:55;15.10;;;12.95;;
27666;SDS011;15074;50.940;5.282;2024-03-08T13:28:22;13.38;;;11.88;;
27666;SDS011;15074;50.940;5.282;2024-03-08T13:30:53;14.02;;;9.25;;
27666;SDS011;15074;50.940;5.282;2024-03-08T13:33:18;15.82;;;12.73;;
27666;SDS011;15074;50.940;5.282;2024-03-08T13:35:45;13.82;;;12.43;;
27666;SDS011;15074;50.940;5.282;2024-03-08T13:38:16;13.60;;;12.20;;
27666;SDS011;15074;50.940;5.282;2024-03-08T13:40:45;14.88;;;13.43;;
27666;SDS011;15074;50.940;5.282;2024-03-08T13:43:12;13.10;;;11.70;;
27666;SDS011;15074;50.940;5.282;2024-03-08T13:45:38;31.67;;;12.95;;
27666;SDS011;15074;50.940;5.282;2024-03-08T13:48:04;14.45;;;12.18;;
27666;SDS011;15074;50.940;5.282;2024-03-08T13:50:30;20.83;;;13.10;;
27666;SDS011;15074;50.940;5.282;2024-03-08T13:52:56;17.80;;;12.30;;
27666;SDS011;15074;50.940;5.282;2024-03-08T13:55:22;14.25;;;12.27;;
27666;SDS011;15074;50.940;5.282;2024-03-08T13:57:48;15.77;;;11.75;;
27666;SDS011;15074;50.940;5.282;2024-03-08T14:00:16;21.90;;;12.60;;
27666;SDS011;15074;50.940;5.282;2024-03-08T14:02:42;43.58;;;14.68;;
27666;SDS011;15074;50.940;5.282;2024-03-08T14:05:08;12.32;;;10.60;;
27666;SDS011;15074;50.940;5.282;2024-03-08T14:07:34;13.45;;;9.18;;
27666;SDS011;15074;50.940;5.282;2024-03-08T14:10:01;20.92;;;12.60;;
27666;SDS011;15074;50.940;5.282;2024-03-08T14:12:27;13.30;;;11.73;;
27666;SDS011;15074;50.940;5.282;2024-03-08T14:14:52;15.38;;;12.00;;
27666;SDS011;15074;50.940;5.282;2024-03-08T14:17:18;21.88;;;13.13;;
27666;SDS011;15074;50.940;5.282;2024-03-08T14:19:44;12.82;;;11.60;;
27666;SDS011;15074;50.940;5.282;2024-03-08T14:22:10;20.63;;;12.82;;
27666;SDS011;15074;50.940;5.282;2024-03-08T14:24:39;19.88;;;13.02;;
27666;SDS011;15074;50.940;5.282;2024-03-08T14:27:06;16.95;;;11.73;;
27666;SDS011;15074;50.940;5.282;2024-03-08T14:29:33;21.35;;;12.07;;
27666;SDS011;15074;50.940;5.282;2024-03-08T14:31:59;13.00;;;11.57;;
27666;SDS011;15074;50.940;5.282;2024-03-08T14:34:26;18.08;;;11.57;;
27666;SDS011;15074;50.940;5.282;2024-03-08T14:39:20;37.58;;;12.65;;
27666;SDS011;15074;50.940;5.282;2024-03-08T14:41:50;17.80;;;11.88;;
27666;SDS011;15074;50.940;5.282;2024-03-08T14:44:18;18.10;;;12.13;;
27666;SDS011;15074;50.940;5.282;2024-03-08T14:46:45;15.07;;;11.45;;
27666;SDS011;15074;50.940;5.282;2024-03-08T14:49:11;18.63;;;12.18;;
27666;SDS011;15074;50.940;5.282;2024-03-08T14:51:37;12.32;;;11.10;;
27666;SDS011;15074;50.940;5.282;2024-03-08T14:54:03;18.88;;;11.23;;
27666;SDS011;15074;50.940;5.282;2024-03-08T14:56:32;19.17;;;12.25;;
27666;SDS011;15074;50.940;5.282;2024-03-08T14:58:58;14.10;;;10.65;;
27666;SDS011;15074;50.940;5.282;2024-03-08T15:01:24;21.92;;;12.85;;
27666;SDS011;15074;50.940;5.282;2024-03-08T15:03:54;18.83;;;12.70;;
27666;SDS011;15074;50.940;5.282;2024-03-08T15:06:20;21.90;;;12.85;;
27666;SDS011;15074;50.940;5.282;2024-03-08T15:08:47;12.73;;;11.18;;
27666;SDS011;15074;50.940;5.282;2024-03-08T15:11:13;20.95;;;11.45;;
27666;SDS011;15074;50.940;5.282;2024-03-08T15:13:50;16.55;;;12.30;;
27666;SDS011;15074;50.940;5.282;2024-03-08T15:18:45;14.27;;;10.68;;
27666;SDS011;15074;50.940;5.282;2024-03-08T15:21:12;21.38;;;13.13;;
27666;SDS011;15074;50.940;5.282;2024-03-08T15:23:50;22.63;;;13.15;;
27666;SDS011;15074;50.940;5.282;2024-03-08T15:26:17;13.82;;;11.93;;
27666;SDS011;15074;50.940;5.282;2024-03-08T15:28:43;15.75;;;11.57;;
27666;SDS011;15074;50.940;5.282;2024-03-08T15:31:10;19.10;;;12.27;;